Time;durP1;ratioP1;P1;durP2;ratioP2;P2;SDS_P1;SDS_P2;PMS_P1;PMS_P2;Temp;Humidity;BMP_temperature;BMP_pressure;BME280_temperature;BME280_humidity;BME280_pressure;Samples;Min_cycle;Max_cycle;Signal;HPM_P1;HPM_P2
2023/06/18 00:02:16;;;;;;;13.40;11.15;;;18.90;61.40;;;;;;5073894;28;20483;-69
2023/06/18 00:04:42;;;;;;;16.80;14.88;;;18.90;61.50;;;;;;5094443;28;20101;-70
2023/06/18 00:07:08;;;;;;;14.13;12.32;;;18.80;61.90;;;;;;5085137;28;20408;-69
2023/06/18 00:09:33;;;;;;;15.60;13.65;;;18.80;61.90;;;;;;5106785;28;20047;-69
2023/06/18 00:11:59;;;;;;;15.38;13.38;;;18.80;62.10;;;;;;5090552;28;20107;-70
2023/06/18 00:14:25;;;;;;;14.02;12.48;;;18.70;62.30;;;;;;5106483;28;20046;-69
2023/06/18 00:16:52;;;;;;;14.25;12.52;;;18.70;62.50;;;;;;5111981;28;20084;-69
2023/06/18 00:19:17;;;;;;;17.00;15.20;;;18.60;62.50;;;;;;5091205;28;20383;-69
2023/06/18 00:21:43;;;;;;;17.08;13.40;;;18.60;62.70;;;;;;5093264;28;20070;-69
2023/06/18 00:24:09;;;;;;;14.45;11.35;;;18.60;62.70;;;;;;5099603;28;20043;-69
2023/06/18 00:26:34;;;;;;;16.42;14.25;;;18.60;62.60;;;;;;5112669;28;20044;-69
2023/06/18 00:29:01;;;;;;;15.45;12.70;;;18.60;62.50;;;;;;5105144;28;20059;-70
2023/06/18 00:31:27;;;;;;;14.52;11.75;;;18.60;62.50;;;;;;5094794;28;20093;-69
2023/06/18 00:33:52;;;;;;;16.55;14.45;;;18.60;62.40;;;;;;5088365;28;20048;-69
2023/06/18 00:36:20;;;;;;;14.68;13.10;;;18.60;62.40;;;;;;5110951;28;20043;-70
2023/06/18 00:38:47;;;;;;;18.77;16.05;;;18.60;62.50;;;;;;5109447;28;20410;-69
2023/06/18 00:41:13;;;;;;;17.35;15.30;;;18.70;62.80;;;;;;5077497;28;20032;-69
2023/06/18 00:43:39;;;;;;;15.52;13.93;;;18.70;62.60;;;;;;5092779;28;20071;-69
2023/06/18 00:46:05;;;;;;;16.00;14.38;;;18.70;62.40;;;;;;5104458;28;20067;-69
2023/06/18 00:48:32;;;;;;;18.35;16.48;;;18.60;62.40;;;;;;5109662;28;20043;-69
2023/06/18 00:51:01;;;;;;;15.30;13.13;;;18.60;62.50;;;;;;5095547;28;20341;-69
2023/06/18 00:53:28;;;;;;;12.50;11.20;;;18.60;62.40;;;;;;5077798;28;20062;-69
2023/06/18 00:55:53;;;;;;;13.05;11.57;;;18.60;62.10;;;;;;5097294;28;20048;-69
2023/06/18 00:58:23;;;;;;;13.73;12.27;;;18.60;62.00;;;;;;5092333;28;20687;-69
2023/06/18 01:00:50;;;;;;;15.07;13.10;;;18.60;61.80;;;;;;5101128;28;20050;-70
2023/06/18 01:03:20;;;;;;;14.77;13.27;;;18.50;61.80;;;;;;5083228;28;20399;-69
2023/06/18 01:05:53;;;;;;;14.98;12.98;;;18.50;61.80;;;;;;5104654;28;20040;-69
2023/06/18 01:08:23;;;;;;;14.60;13.07;;;18.50;61.70;;;;;;5097085;28;20401;-69
2023/06/18 01:10:57;;;;;;;13.70;11.88;;;18.60;61.60;;;;;;5099714;28;21634;-69
2023/06/18 01:13:25;;;;;;;14.98;13.38;;;18.50;61.50;;;;;;5095016;28;20043;-69
2023/06/18 01:15:51;;;;;;;14.48;12.98;;;18.60;61.50;;;;;;5083443;28;20051;-69
2023/06/18 01:18:17;;;;;;;14.15;12.73;;;18.60;61.40;;;;;;5093168;28;20035;-69
2023/06/18 01:20:45;;;;;;;14.15;11.82;;;18.60;61.20;;;;;;5093714;28;20048;-69
2023/06/18 01:23:45;;;;;;;14.52;13.05;;;18.60;60.90;;;;;;5080738;28;20364;-69
2023/06/18 01:26:11;;;;;;;13.15;11.75;;;18.60;60.50;;;;;;5110616;28;20249;-68
2023/06/18 01:28:37;;;;;;;16.40;13.05;;;18.60;60.60;;;;;;5105361;28;20047;-69
2023/06/18 01:31:03;;;;;;;14.55;12.38;;;18.70;60.40;;;;;;5077047;28;20085;-68
2023/06/18 01:33:29;;;;;;;16.15;13.85;;;18.60;60.20;;;;;;5104595;28;20035;-69
2023/06/18 01:35:56;;;;;;;18.58;16.65;;;18.70;60.20;;;;;;5110140;28;20080;-68
2023/06/18 01:38:38;;;;;;;18.58;15.77;;;18.60;60.30;;;;;;5091309;28;20047;-68
2023/06/18 01:41:11;;;;;;;17.02;15.32;;;18.60;60.30;;;;;;5075283;28;20062;-69
2023/06/18 01:43:47;;;;;;;16.10;14.40;;;18.60;60.10;;;;;;5097620;28;20044;-69
2023/06/18 01:46:16;;;;;;;13.55;12.15;;;18.50;60.00;;;;;;5107277;28;20038;-69
2023/06/18 01:48:45;;;;;;;15.45;13.93;;;18.50;60.10;;;;;;5099275;28;20043;-69
2023/06/18 01:51:12;;;;;;;13.98;12.57;;;18.40;60.20;;;;;;5109192;28;20049;-69
2023/06/18 01:53:42;;;;;;;14.27;12.52;;;18.40;60.30;;;;;;5097712;28;20047;-68
2023/06/18 01:56:09;;;;;;;14.02;12.13;;;18.40;60.40;;;;;;5107166;28;20414;-69
2023/06/18 01:58:36;;;;;;;16.00;13.30;;;18.30;60.30;;;;;;5105042;28;20512;-69
2023/06/18 02:01:02;;;;;;;16.38;14.77;;;18.30;60.40;;;;;;5106291;28;20384;-69
2023/06/18 02:03:29;;;;;;;15.32;13.73;;;18.30;60.60;;;;;;5096712;28;20114;-69
2023/06/18 02:05:55;;;;;;;19.70;17.13;;;18.30;60.60;;;;;;5091044;28;20044;-69
2023/06/18 02:08:21;;;;;;;17.25;14.95;;;18.20;61.00;;;;;;5091659;28;20044;-69
2023/06/18 02:10:47;;;;;;;20.38;17.98;;;18.20;61.10;;;;;;5087751;28;20399;-69
2023/06/18 02:13:12;;;;;;;16.23;14.27;;;18.10;61.30;;;;;;5103410;28;20174;-70
2023/06/18 02:15:41;;;;;;;15.75;14.15;;;18.10;61.30;;;;;;5110036;28;20045;-68
2023/06/18 02:18:08;;;;;;;14.95;13.43;;;18.00;61.20;;;;;;5100239;28;20393;-68
2023/06/18 02:20:35;;;;;;;16.90;14.85;;;18.00;61.30;;;;;;5095320;28;20136;-69
2023/06/18 02:23:00;;;;;;;15.20;13.63;;;17.90;61.50;;;;;;5103682;28;20043;-69
2023/06/18 02:25:29;;;;;;;14.00;12.45;;;17.90;61.60;;;;;;5098859;28;20039;-69
2023/06/18 02:28:03;;;;;;;17.23;15.38;;;17.90;61.60;;;;;;5088092;28;20467;-69
2023/06/18 02:30:29;;;;;;;19.90;17.52;;;17.90;61.80;;;;;;5094324;28;20110;-69
2023/06/18 02:33:00;;;;;;;20.90;18.80;;;17.90;62.00;;;;;;5090897;28;20058;-69
2023/06/18 02:35:27;;;;;;;22.88;19.75;;;17.90;62.70;;;;;;5097622;28;20561;-69
2023/06/18 02:37:54;;;;;;;22.10;19.70;;;17.90;62.80;;;;;;5109053;28;20039;-69
2023/06/18 02:40:20;;;;;;;18.38;16.48;;;17.90;63.00;;;;;;5098395;28;20503;-69
2023/06/18 02:42:47;;;;;;;21.05;18.85;;;17.90;63.00;;;;;;5099217;28;20040;-69
2023/06/18 02:45:16;;;;;;;17.80;15.85;;;17.90;63.00;;;;;;5098414;28;20048;-69
2023/06/18 02:47:46;;;;;;;17.42;15.73;;;17.80;63.10;;;;;;5090618;28;20040;-68
2023/06/18 02:50:12;;;;;;;15.70;14.10;;;17.80;63.10;;;;;;5083388;28;20043;-68
2023/06/18 02:52:39;;;;;;;16.80;14.80;;;17.80;63.30;;;;;;5091788;28;20123;-69
2023/06/18 02:55:07;;;;;;;21.98;19.67;;;17.80;63.30;;;;;;5083585;28;20043;-69
2023/06/18 02:57:34;;;;;;;21.15;18.92;;;17.80;63.40;;;;;;5090973;28;20059;-69
2023/06/18 03:00:00;;;;;;;21.90;19.70;;;17.80;63.50;;;;;;5100178;28;20040;-69
2023/06/18 03:02:26;;;;;;;18.65;16.65;;;17.70;63.50;;;;;;5090702;28;20519;-69
2023/06/18 03:04:52;;;;;;;22.38;20.00;;;17.70;63.40;;;;;;5104338;28;20115;-69
2023/06/18 03:07:17;;;;;;;23.13;20.67;;;17.70;63.60;;;;;;5092648;28;20032;-68
2023/06/18 03:09:43;;;;;;;21.58;19.42;;;17.70;63.90;;;;;;5093082;28;20215;-69
2023/06/18 03:12:11;;;;;;;22.02;19.83;;;17.60;63.90;;;;;;5087720;28;20046;-69
2023/06/18 03:14:37;;;;;;;28.13;24.95;;;17.60;64.00;;;;;;5106485;28;20111;-69
2023/06/18 03:17:03;;;;;;;23.60;21.08;;;17.50;64.60;;;;;;5102596;28;20050;-69
2023/06/18 03:19:28;;;;;;;23.83;21.30;;;17.50;65.10;;;;;;5108769;28;20044;-69
2023/06/18 03:21:54;;;;;;;29.75;25.73;;;17.40;65.50;;;;;;5091484;28;20032;-69
2023/06/18 03:24:20;;;;;;;30.30;26.40;;;17.40;66.30;;;;;;5101195;28;20217;-69
2023/06/18 03:26:46;;;;;;;25.83;23.17;;;17.20;67.00;;;;;;5111191;28;20415;-69
2023/06/18 03:29:11;;;;;;;21.20;19.00;;;17.10;67.50;;;;;;5095645;28;20031;-69
2023/06/18 03:31:39;;;;;;;20.30;18.20;;;17.10;67.50;;;;;;5097881;28;20075;-69
2023/06/18 03:34:07;;;;;;;24.40;21.73;;;17.00;67.10;;;;;;5110610;28;20382;-69
2023/06/18 03:36:39;;;;;;;22.10;19.67;;;17.00;67.20;;;;;;5099890;27;20515;-69
2023/06/18 03:39:09;;;;;;;22.67;20.02;;;17.00;67.60;;;;;;5077061;28;20277;-69
2023/06/18 03:41:35;;;;;;;25.00;21.27;;;17.00;67.70;;;;;;5093975;28;20040;-69
2023/06/18 03:44:04;;;;;;;23.30;20.80;;;17.10;67.70;;;;;;5104623;28;20475;-69
2023/06/18 03:46:31;;;;;;;20.08;17.33;;;17.10;67.60;;;;;;5087539;28;20162;-69
2023/06/18 03:48:57;;;;;;;23.05;19.63;;;17.10;67.50;;;;;;5092247;28;20040;-69
2023/06/18 03:51:23;;;;;;;17.83;15.90;;;17.10;67.40;;;;;;5071458;28;20112;-69
2023/06/18 03:53:50;;;;;;;22.58;19.02;;;17.10;67.00;;;;;;5112997;28;20042;-69
2023/06/18 03:56:16;;;;;;;23.92;21.52;;;17.10;67.10;;;;;;5104094;28;20032;-69
2023/06/18 03:58:43;;;;;;;25.27;22.65;;;17.20;67.50;;;;;;5095069;28;20130;-69
2023/06/18 04:01:12;;;;;;;22.20;19.95;;;17.20;67.60;;;;;;5101965;28;20118;-69
2023/06/18 04:03:38;;;;;;;20.85;18.67;;;17.20;67.80;;;;;;5101006;28;20102;-69
2023/06/18 04:06:04;;;;;;;19.63;17.25;;;17.20;67.80;;;;;;5100072;28;20084;-69
2023/06/18 04:08:31;;;;;;;24.65;22.05;;;17.20;67.70;;;;;;5111859;28;20050;-69
2023/06/18 04:10:58;;;;;;;25.33;21.08;;;17.20;68.10;;;;;;5106090;28;20063;-69
2023/06/18 04:13:23;;;;;;;23.77;21.33;;;17.20;68.20;;;;;;5103201;28;20039;-69
2023/06/18 04:15:49;;;;;;;27.77;24.75;;;17.30;68.50;;;;;;5111945;28;20073;-69
2023/06/18 04:18:16;;;;;;;29.45;23.40;;;17.30;68.80;;;;;;5087410;28;20576;-69
2023/06/18 04:20:42;;;;;;;25.75;23.15;;;17.30;69.00;;;;;;5092299;28;20072;-69
2023/06/18 04:23:08;;;;;;;32.40;27.23;;;17.30;68.80;;;;;;5103918;28;20066;-69
2023/06/18 04:25:34;;;;;;;24.90;22.15;;;17.40;69.10;;;;;;5095002;28;20100;-69
2023/06/18 04:28:00;;;;;;;27.40;24.60;;;17.60;69.30;;;;;;5111265;28;20042;-69
2023/06/18 04:30:26;;;;;;;31.67;27.00;;;17.40;69.40;;;;;;5111554;28;20051;-69
2023/06/18 04:32:51;;;;;;;28.10;25.08;;;17.40;69.70;;;;;;5095564;28;20169;-69
2023/06/18 04:35:18;;;;;;;31.33;27.67;;;17.40;69.90;;;;;;5093336;28;20347;-69
2023/06/18 04:37:44;;;;;;;30.65;25.20;;;17.40;70.10;;;;;;5094677;28;20055;-69
2023/06/18 04:40:10;;;;;;;31.92;27.38;;;17.40;70.50;;;;;;5106327;28;20039;-69
2023/06/18 04:42:36;;;;;;;31.20;26.98;;;17.40;70.90;;;;;;5096520;28;20039;-69
2023/06/18 04:45:03;;;;;;;30.25;26.38;;;17.40;71.20;;;;;;5076183;28;20054;-69
2023/06/18 04:47:29;;;;;;;32.03;27.92;;;17.30;71.40;;;;;;5094715;28;20464;-69
2023/06/18 04:49:55;;;;;;;28.92;25.08;;;17.40;71.70;;;;;;5092810;28;20509;-69
2023/06/18 04:52:21;;;;;;;26.88;24.15;;;17.30;71.70;;;;;;5092842;28;20040;-69
2023/06/18 04:54:47;;;;;;;30.10;26.80;;;17.30;71.50;;;;;;5101147;28;20055;-69
2023/06/18 04:57:13;;;;;;;26.75;23.85;;;17.30;71.60;;;;;;5091320;28;20038;-69
2023/06/18 04:59:39;;;;;;;26.02;23.23;;;17.40;71.80;;;;;;5084580;28;20499;-69
2023/06/18 05:02:06;;;;;;;33.83;28.75;;;17.40;71.80;;;;;;5088046;28;20046;-69
2023/06/18 05:04:32;;;;;;;29.77;26.50;;;17.40;72.10;;;;;;5097030;28;20445;-69
2023/06/18 05:06:58;;;;;;;30.60;27.30;;;17.50;72.50;;;;;;5098723;28;20044;-69
2023/06/18 05:09:25;;;;;;;32.28;27.75;;;17.50;72.80;;;;;;5092135;28;20043;-69
2023/06/18 05:11:51;;;;;;;33.20;28.73;;;17.50;73.10;;;;;;5098484;28;20051;-69
2023/06/18 05:14:17;;;;;;;33.15;27.98;;;17.60;73.30;;;;;;5110164;28;20394;-69
2023/06/18 05:16:43;;;;;;;32.65;27.92;;;17.60;73.60;;;;;;5097488;28;20040;-69
2023/06/18 05:19:08;;;;;;;34.95;28.65;;;17.70;73.70;;;;;;5111597;28;20118;-69
2023/06/18 05:21:35;;;;;;;30.85;27.58;;;17.70;73.80;;;;;;5108336;28;20042;-69
2023/06/18 05:24:00;;;;;;;31.25;27.55;;;17.80;73.90;;;;;;5109819;28;20043;-69
2023/06/18 05:26:26;;;;;;;31.15;27.85;;;17.80;73.80;;;;;;5107890;28;20646;-69
2023/06/18 05:28:52;;;;;;;31.90;26.92;;;17.90;73.80;;;;;;5095862;28;20068;-69
2023/06/18 05:31:18;;;;;;;34.10;27.95;;;17.90;73.70;;;;;;5105667;28;20052;-68
2023/06/18 05:33:44;;;;;;;33.20;28.85;;;17.90;73.80;;;;;;5111534;28;20551;-69
2023/06/18 05:36:10;;;;;;;32.35;27.40;;;17.90;73.70;;;;;;5110263;28;20122;-69
2023/06/18 05:38:35;;;;;;;37.00;29.13;;;17.90;73.80;;;;;;5092360;28;20087;-69
2023/06/18 05:41:01;;;;;;;32.78;28.83;;;17.90;73.80;;;;;;5106125;28;20462;-69
2023/06/18 05:43:27;;;;;;;34.80;28.65;;;17.80;74.00;;;;;;5109157;28;20097;-69
2023/06/18 05:45:53;;;;;;;33.10;29.10;;;17.80;74.20;;;;;;5086119;28;20446;-69
2023/06/18 05:48:19;;;;;;;33.97;29.45;;;17.80;74.50;;;;;;5102207;28;20131;-69
2023/06/18 05:50:44;;;;;;;38.67;30.92;;;17.70;74.50;;;;;;5074790;28;20558;-69
2023/06/18 05:53:10;;;;;;;34.15;29.30;;;17.70;74.80;;;;;;5078821;28;20424;-69
2023/06/18 05:55:36;;;;;;;35.00;30.27;;;17.70;75.10;;;;;;5105603;28;20044;-69
2023/06/18 05:58:02;;;;;;;37.15;31.30;;;17.70;75.30;;;;;;5098779;28;20127;-69
2023/06/18 06:00:28;;;;;;;37.20;30.63;;;17.70;75.50;;;;;;5098555;28;20051;-69
2023/06/18 06:02:53;;;;;;;35.78;30.63;;;17.70;75.80;;;;;;5096222;28;20388;-68
2023/06/18 06:05:20;;;;;;;35.30;29.15;;;17.70;75.90;;;;;;5092540;28;20040;-68
2023/06/18 06:07:46;;;;;;;33.25;28.08;;;17.70;76.10;;;;;;5085023;28;20039;-68
2023/06/18 06:10:16;;;;;;;36.50;28.83;;;17.70;76.20;;;;;;5104946;28;20067;-69
2023/06/18 06:12:41;;;;;;;34.40;30.65;;;17.80;76.40;;;;;;5073953;28;20121;-69
2023/06/18 06:15:09;;;;;;;35.58;30.27;;;17.80;76.50;;;;;;5091176;28;20074;-69
2023/06/18 06:17:38;;;;;;;39.00;30.02;;;17.80;76.60;;;;;;5099057;28;20050;-68
2023/06/18 06:20:05;;;;;;;39.15;30.75;;;17.90;76.70;;;;;;5090003;28;20044;-68
2023/06/18 06:22:30;;;;;;;37.38;30.85;;;17.90;77.10;;;;;;5102436;28;20085;-68
2023/06/18 06:24:57;;;;;;;31.80;26.88;;;18.10;77.50;;;;;;5086469;28;20043;-68
2023/06/18 06:27:23;;;;;;;37.10;29.38;;;18.20;77.50;;;;;;5104270;28;20040;-68
2023/06/18 06:29:48;;;;;;;34.05;28.17;;;18.40;77.30;;;;;;5105563;28;20036;-68
2023/06/18 06:32:14;;;;;;;31.45;26.83;;;18.70;76.80;;;;;;5098349;28;20046;-68
2023/06/18 06:34:40;;;;;;;31.52;27.25;;;18.90;76.00;;;;;;5098476;28;20050;-68
2023/06/18 06:37:06;;;;;;;30.50;26.60;;;19.00;75.50;;;;;;5098058;28;20592;-68
2023/06/18 06:39:32;;;;;;;28.52;25.35;;;19.10;75.20;;;;;;5110842;28;20048;-69
2023/06/18 06:41:58;;;;;;;33.53;28.10;;;19.20;75.10;;;;;;5101025;28;20060;-68
2023/06/18 06:44:24;;;;;;;28.77;25.67;;;19.30;75.30;;;;;;5106127;28;20052;-68
2023/06/18 06:46:50;;;;;;;27.95;24.67;;;19.40;75.20;;;;;;5109175;28;20058;-68
2023/06/18 06:49:15;;;;;;;27.33;22.17;;;19.60;74.90;;;;;;5106410;28;20457;-68
2023/06/18 06:51:41;;;;;;;29.25;23.20;;;19.70;74.10;;;;;;5093070;28;20040;-69
2023/06/18 06:54:09;;;;;;;23.75;20.63;;;19.90;73.80;;;;;;5090891;28;20115;-69
2023/06/18 06:56:37;;;;;;;27.70;21.00;;;20.10;72.70;;;;;;5074086;28;20502;-69
2023/06/18 06:59:03;;;;;;;27.67;20.63;;;20.30;71.50;;;;;;5091287;28;20048;-69
2023/06/18 07:01:28;;;;;;;22.20;19.67;;;20.60;71.10;;;;;;5073620;28;20340;-68
2023/06/18 07:03:54;;;;;;;22.70;18.98;;;20.80;70.60;;;;;;5082608;28;20047;-69
2023/06/18 07:06:20;;;;;;;21.80;18.80;;;21.00;69.60;;;;;;5110074;28;20040;-69
2023/06/18 07:08:46;;;;;;;20.63;18.42;;;21.20;68.30;;;;;;5101460;28;20043;-69
2023/06/18 07:11:11;;;;;;;21.45;18.95;;;21.40;67.20;;;;;;5073866;28;20390;-69
2023/06/18 07:13:37;;;;;;;22.63;19.75;;;21.60;67.10;;;;;;5096319;28;20048;-69
2023/06/18 07:16:06;;;;;;;20.92;17.38;;;21.80;66.40;;;;;;5078975;28;20043;-70
2023/06/18 07:18:31;;;;;;;20.10;17.55;;;21.90;66.00;;;;;;5103563;28;20040;-71
2023/06/18 07:20:57;;;;;;;20.20;16.80;;;22.20;65.70;;;;;;5102417;28;20037;-69
2023/06/18 07:23:23;;;;;;;24.08;18.40;;;22.50;64.50;;;;;;5071695;28;20050;-69
2023/06/18 07:25:49;;;;;;;20.38;18.27;;;22.60;63.60;;;;;;5086059;28;20471;-71
2023/06/18 07:28:15;;;;;;;21.50;17.40;;;22.80;63.20;;;;;;5085870;28;20040;-70
2023/06/18 07:30:41;;;;;;;19.58;17.33;;;23.00;61.80;;;;;;5085450;28;20070;-69
2023/06/18 07:33:07;;;;;;;19.90;17.80;;;23.10;61.00;;;;;;5085872;28;20071;-69
2023/06/18 07:35:32;;;;;;;18.90;16.90;;;23.30;60.90;;;;;;5084957;28;20043;-69
2023/06/18 07:37:58;;;;;;;18.73;16.63;;;23.50;60.30;;;;;;5086062;28;20120;-69
2023/06/18 07:40:25;;;;;;;17.88;15.98;;;23.70;59.90;;;;;;5084931;28;20052;-69
2023/06/18 07:42:51;;;;;;;18.88;15.75;;;23.80;59.20;;;;;;5085027;28;20140;-70
2023/06/18 07:45:17;;;;;;;16.90;15.07;;;23.90;58.90;;;;;;5067988;28;20088;-69
2023/06/18 07:47:42;;;;;;;20.13;14.95;;;24.00;58.80;;;;;;5084742;28;20040;-70
2023/06/18 07:50:09;;;;;;;18.00;15.48;;;24.00;58.30;;;;;;5084442;28;20166;-70
2023/06/18 07:52:34;;;;;;;18.60;16.55;;;24.10;58.20;;;;;;5085691;28;20143;-70
2023/06/18 07:55:00;;;;;;;18.30;15.10;;;24.10;58.10;;;;;;5085765;28;20127;-70
2023/06/18 07:57:26;;;;;;;17.20;15.43;;;24.10;58.30;;;;;;5086131;28;20123;-71
2023/06/18 07:59:52;;;;;;;16.65;14.35;;;24.20;58.30;;;;;;5085068;28;20086;-68
2023/06/18 08:02:17;;;;;;;19.33;15.60;;;24.40;58.60;;;;;;5084446;28;20044;-70
2023/06/18 08:04:43;;;;;;;16.60;13.98;;;24.50;57.10;;;;;;5084655;28;20044;-70
2023/06/18 08:07:09;;;;;;;18.02;14.88;;;24.50;56.80;;;;;;5067328;28;20040;-69
2023/06/18 08:09:35;;;;;;;17.35;14.50;;;24.60;56.30;;;;;;5086167;28;20075;-70
2023/06/18 08:12:00;;;;;;;17.83;14.25;;;24.60;56.00;;;;;;5088173;28;20485;-70
2023/06/18 08:14:27;;;;;;;15.75;13.55;;;24.70;55.80;;;;;;5071102;28;20571;-70
2023/06/18 08:16:53;;;;;;;15.00;13.00;;;24.80;55.50;;;;;;5088352;28;20491;-70
2023/06/18 08:19:19;;;;;;;14.85;11.65;;;24.80;55.40;;;;;;5093689;28;20048;-70
2023/06/18 08:21:45;;;;;;;11.32;10.15;;;24.90;55.10;;;;;;5076810;28;20119;-70
2023/06/18 08:24:11;;;;;;;12.05;10.18;;;25.00;54.60;;;;;;5108007;28;20036;-70
2023/06/18 08:26:37;;;;;;;14.98;11.30;;;25.10;53.80;;;;;;5096687;28;20471;-71
2023/06/18 08:29:03;;;;;;;13.95;9.88;;;25.20;53.10;;;;;;5096451;28;20059;-72
2023/06/18 08:31:29;;;;;;;10.07;8.98;;;25.30;52.80;;;;;;5113108;28;20039;-72
2023/06/18 08:33:55;;;;;;;12.57;10.38;;;25.40;51.50;;;;;;5097131;28;20525;-72
2023/06/18 08:36:23;;;;;;;9.82;8.88;;;25.50;50.80;;;;;;5111267;28;20044;-72
2023/06/18 08:38:49;;;;;;;12.27;9.93;;;25.60;50.80;;;;;;5112106;28;20058;-70
2023/06/18 08:41:15;;;;;;;10.63;8.73;;;25.70;49.90;;;;;;5110923;28;20047;-70
2023/06/18 08:43:41;;;;;;;11.57;9.27;;;25.70;49.40;;;;;;5104383;28;20496;-70
2023/06/18 08:46:14;;;;;;;8.82;7.93;;;25.80;48.70;;;;;;5113182;28;20092;-71
2023/06/18 08:48:45;;;;;;;8.23;7.43;;;25.80;48.00;;;;;;5112050;28;20040;-71
2023/06/18 08:51:11;;;;;;;9.13;7.10;;;25.90;47.20;;;;;;5078810;28;20050;-71
2023/06/18 08:53:52;;;;;;;8.80;7.90;;;25.90;46.90;;;;;;5103136;28;20478;-71
2023/06/18 08:56:21;;;;;;;10.20;7.40;;;25.90;46.20;;;;;;5112938;28;20039;-70
2023/06/18 08:58:52;;;;;;;9.57;7.65;;;26.00;45.80;;;;;;5112979;28;20044;-71
2023/06/18 09:01:22;;;;;;;8.90;7.28;;;26.00;44.70;;;;;;5112620;28;20035;-71
2023/06/18 09:03:49;;;;;;;8.60;7.07;;;26.10;45.20;;;;;;5111319;28;20075;-72
2023/06/18 09:06:15;;;;;;;8.70;7.80;;;26.20;46.00;;;;;;5111542;28;20359;-71
2023/06/18 09:08:41;;;;;;;8.82;7.95;;;26.20;45.20;;;;;;5100559;28;20054;-71
2023/06/18 09:11:07;;;;;;;9.25;8.35;;;26.20;44.80;;;;;;5075649;28;20048;-70
2023/06/18 09:13:33;;;;;;;9.25;7.88;;;26.30;45.20;;;;;;5096826;28;20118;-71
2023/06/18 09:16:00;;;;;;;8.88;7.82;;;26.40;44.30;;;;;;5100429;28;20599;-72
2023/06/18 09:18:26;;;;;;;8.75;7.63;;;26.50;44.50;;;;;;5091965;28;20048;-72
2023/06/18 09:20:53;;;;;;;7.43;6.68;;;26.50;43.90;;;;;;5091431;28;20040;-70
2023/06/18 09:23:19;;;;;;;9.18;7.60;;;26.50;43.90;;;;;;5093206;28;20074;-70
2023/06/18 09:25:55;;;;;;;8.93;7.68;;;26.60;44.10;;;;;;5084092;28;20067;-71
2023/06/18 09:28:21;;;;;;;8.23;7.15;;;26.60;43.00;;;;;;5094989;28;20040;-71
2023/06/18 09:30:57;;;;;;;9.80;7.82;;;26.60;42.80;;;;;;5111984;28;20082;-71
2023/06/18 09:33:34;;;;;;;7.60;6.75;;;26.60;42.80;;;;;;5111775;28;20036;-71
2023/06/18 09:36:07;;;;;;;7.40;6.63;;;26.60;43.30;;;;;;5101123;28;20122;-71
2023/06/18 09:38:38;;;;;;;7.65;6.53;;;26.70;43.10;;;;;;5109236;28;20079;-72
2023/06/18 09:41:15;;;;;;;8.52;6.65;;;26.70;42.50;;;;;;5103326;28;20048;-72
2023/06/18 09:43:43;;;;;;;8.75;7.10;;;26.80;42.10;;;;;;5088852;28;20111;-71
2023/06/18 09:46:10;;;;;;;7.50;6.43;;;26.80;41.90;;;;;;5085867;28;20490;-72
2023/06/18 09:48:37;;;;;;;8.07;6.30;;;26.90;41.90;;;;;;5111718;28;20087;-71
2023/06/18 09:51:04;;;;;;;8.18;7.32;;;27.10;41.50;;;;;;5111502;28;20039;-69
2023/06/18 09:53:31;;;;;;;8.52;7.43;;;27.20;41.30;;;;;;5093216;28;20055;-69
2023/06/18 09:56:11;;;;;;;7.55;6.50;;;27.30;40.90;;;;;;5084814;28;20096;-70
2023/06/18 09:58:42;;;;;;;8.35;6.57;;;27.50;40.10;;;;;;5111712;28;20132;-69
2023/06/18 10:01:08;;;;;;;7.75;6.95;;;27.70;41.00;;;;;;5107116;28;20364;-70
2023/06/18 10:03:34;;;;;;;8.73;6.90;;;27.80;40.20;;;;;;5109662;28;20397;-70
2023/06/18 10:06:13;;;;;;;9.88;6.80;;;27.90;39.70;;;;;;5101122;28;20388;-70
2023/06/18 10:08:43;;;;;;;9.48;7.07;;;28.00;40.20;;;;;;5090863;28;20446;-70
2023/06/18 10:11:10;;;;;;;6.63;5.97;;;28.10;39.90;;;;;;5102565;28;20053;-70
2023/06/18 10:13:49;;;;;;;7.57;6.88;;;28.20;39.50;;;;;;5111482;28;20039;-71
2023/06/18 10:16:17;;;;;;;7.88;7.10;;;28.30;39.60;;;;;;5099107;28;20047;-71
2023/06/18 10:19:27;;;;;;;7.95;7.15;;;28.40;39.00;;;;;;5111415;28;20172;-71
2023/06/18 10:21:58;;;;;;;8.02;6.35;;;28.50;38.90;;;;;;5110054;28;20066;-71
2023/06/18 10:24:31;;;;;;;9.00;7.78;;;28.50;38.60;;;;;;5073662;28;20036;-71
2023/06/18 10:26:57;;;;;;;7.85;7.03;;;28.60;38.50;;;;;;5076268;28;20076;-71
2023/06/18 10:29:23;;;;;;;7.95;6.22;;;28.50;39.20;;;;;;5102089;28;20174;-72
2023/06/18 10:31:51;;;;;;;7.82;6.97;;;28.50;39.30;;;;;;5090337;28;20093;-78
2023/06/18 10:34:17;;;;;;;9.60;7.32;;;28.60;39.60;;;;;;5084601;28;20066;-72
2023/06/18 10:36:45;;;;;;;9.43;6.43;;;28.60;38.80;;;;;;5091788;28;20097;-73
2023/06/18 10:39:11;;;;;;;9.35;7.57;;;28.70;38.60;;;;;;5094481;28;20085;-73
2023/06/18 10:41:37;;;;;;;8.00;7.05;;;28.70;38.60;;;;;;5100610;28;20138;-73
2023/06/18 14:16:25;;;;;;;7.15;6.07;;;30.70;34.20;;;;;;5106786;27;20467;-67
2023/06/18 14:18:51;;;;;;;13.20;8.52;;;30.80;33.70;;;;;;5119701;27;20374;-67
2023/06/18 14:21:17;;;;;;;29.67;17.02;;;30.80;34.00;;;;;;5104775;28;20032;-67
2023/06/18 14:23:45;;;;;;;19.40;10.45;;;30.80;34.00;;;;;;5121872;27;20447;-68
2023/06/18 14:26:11;;;;;;;8.23;6.28;;;30.80;33.70;;;;;;5122286;28;20500;-68
2023/06/18 14:28:38;;;;;;;18.92;10.20;;;30.80;33.60;;;;;;5121918;28;20043;-68
2023/06/18 14:31:04;;;;;;;25.70;11.50;;;30.80;33.20;;;;;;5122720;28;20039;-67
2023/06/18 14:33:31;;;;;;;7.10;6.40;;;30.80;33.30;;;;;;5121307;28;20057;-67
2023/06/18 14:35:57;;;;;;;6.78;5.88;;;30.80;33.10;;;;;;5105035;28;20039;-67
2023/06/18 14:38:22;;;;;;;7.35;5.93;;;30.80;32.80;;;;;;5123354;28;21447;-67
2023/06/18 14:40:48;;;;;;;6.80;5.82;;;30.70;33.10;;;;;;5122435;27;20043;-67
2023/06/18 14:43:14;;;;;;;10.65;6.35;;;30.70;33.30;;;;;;5120875;28;20047;-67
2023/06/18 14:45:40;;;;;;;8.20;5.88;;;30.70;33.30;;;;;;5119058;28;20043;-68
2023/06/18 14:48:06;;;;;;;6.70;5.88;;;30.60;33.40;;;;;;5121868;28;20035;-68
2023/06/18 14:50:31;;;;;;;7.03;5.78;;;30.60;33.20;;;;;;5121866;28;20396;-69
2023/06/18 14:52:57;;;;;;;6.53;5.60;;;30.60;33.00;;;;;;5120182;27;20035;-68
2023/06/18 14:55:23;;;;;;;7.18;5.53;;;30.60;33.20;;;;;;5121450;28;20044;-68
2023/06/18 14:57:49;;;;;;;8.75;6.88;;;30.60;33.50;;;;;;5122088;27;20049;-68
2023/06/18 15:00:18;;;;;;;8.23;5.65;;;30.60;33.30;;;;;;5121155;28;20048;-68
2023/06/18 15:02:44;;;;;;;7.75;6.32;;;30.60;33.20;;;;;;5113031;28;20047;-69
2023/06/18 15:05:09;;;;;;;9.57;6.07;;;30.50;32.80;;;;;;5088135;28;20036;-70
2023/06/18 15:07:36;;;;;;;7.47;5.38;;;30.50;33.20;;;;;;5112819;27;20116;-70
2023/06/18 15:10:02;;;;;;;7.03;6.07;;;30.50;33.30;;;;;;5120012;27;20039;-70
2023/06/18 15:12:28;;;;;;;6.85;6.13;;;30.50;33.60;;;;;;5116076;27;20071;-73
2023/06/18 15:14:54;;;;;;;9.18;6.75;;;30.50;33.60;;;;;;5101088;28;20098;-69
2023/06/18 15:17:21;;;;;;;7.47;5.82;;;30.50;33.40;;;;;;5083852;28;20105;-68
2023/06/18 15:19:55;;;;;;;6.00;5.40;;;30.50;33.90;;;;;;5101411;28;20031;-69
2023/06/18 15:22:22;;;;;;;9.38;6.68;;;30.50;34.00;;;;;;5098471;28;20391;-69
2023/06/18 15:24:47;;;;;;;10.10;6.57;;;30.40;34.40;;;;;;5099228;28;20040;-71
2023/06/18 15:27:13;;;;;;;7.60;5.78;;;30.40;35.20;;;;;;5054514;28;20039;-69
2023/06/18 15:29:39;;;;;;;7.55;6.38;;;30.40;34.90;;;;;;5087305;28;20101;-70
2023/06/18 15:32:05;;;;;;;9.80;6.72;;;30.30;34.60;;;;;;5086436;28;20134;-69
2023/06/18 15:34:31;;;;;;;7.00;6.20;;;30.30;34.20;;;;;;5084370;28;20036;-69
2023/06/18 15:36:57;;;;;;;6.28;5.65;;;30.30;35.10;;;;;;5068285;28;20134;-69
2023/06/18 15:39:24;;;;;;;6.65;5.93;;;30.30;35.00;;;;;;5067661;28;20040;-69
2023/06/18 15:41:50;;;;;;;7.30;5.90;;;30.30;35.10;;;;;;5085437;28;20115;-69
2023/06/18 15:44:16;;;;;;;7.22;5.30;;;30.20;34.60;;;;;;5087562;28;20193;-69
2023/06/18 15:46:43;;;;;;;8.60;6.28;;;30.20;35.00;;;;;;5065476;28;20082;-70
2023/06/18 15:49:10;;;;;;;6.68;5.88;;;30.10;34.90;;;;;;5078025;28;20691;-69
2023/06/18 15:51:36;;;;;;;9.65;6.65;;;30.00;35.00;;;;;;5076316;28;20054;-70
2023/06/18 15:54:02;;;;;;;6.82;6.22;;;30.00;34.30;;;;;;5079578;28;21541;-69
2023/06/18 15:56:28;;;;;;;8.00;5.90;;;29.90;34.20;;;;;;5085221;28;20048;-69
2023/06/18 15:58:53;;;;;;;8.30;5.88;;;29.90;35.00;;;;;;5069080;28;20122;-69
2023/06/18 16:01:19;;;;;;;9.15;6.22;;;29.80;34.60;;;;;;5085946;28;20505;-68
2023/06/18 16:03:45;;;;;;;8.43;6.05;;;29.70;34.70;;;;;;5087655;28;20545;-68
2023/06/18 16:06:10;;;;;;;7.32;5.95;;;29.60;34.20;;;;;;5087524;28;20036;-69